createdAt,value
2018-02-09T00:01:53.954Z,95.10
2018-02-09T00:04:21.440Z,92.93
2018-02-09T00:06:48.911Z,91.12
2018-02-09T00:09:16.400Z,88.05
2018-02-09T00:11:43.881Z,92.10
2018-02-09T00:14:11.375Z,91.65
2018-02-09T00:16:38.852Z,84.97
2018-02-09T00:19:06.383Z,85.07
2018-02-09T00:21:33.856Z,81.75
2018-02-09T00:24:01.332Z,87.30
2018-02-09T00:26:29.580Z,105.25
2018-02-09T00:28:57.081Z,82.53
2018-02-09T00:31:25.316Z,98.32
2018-02-09T00:33:52.800Z,89.18
2018-02-09T00:36:20.289Z,91.75
2018-02-09T00:38:47.769Z,101.97
2018-02-09T00:41:15.256Z,95.72
2018-02-09T00:43:42.736Z,90.15
2018-02-09T00:46:10.993Z,104.60
2018-02-09T00:48:38.471Z,107.93
2018-02-09T00:51:06.728Z,112.22
2018-02-09T00:53:34.212Z,85.80
2018-02-09T00:56:02.460Z,97.15
2018-02-09T00:58:29.940Z,90.25
2018-02-09T01:00:58.195Z,88.32
2018-02-09T01:03:25.668Z,91.07
2018-02-09T01:05:53.143Z,94.15
2018-02-09T01:08:21.661Z,94.55
2018-02-09T01:10:49.144Z,102.57
2018-02-09T01:13:16.621Z,95.75
2018-02-09T01:15:44.112Z,86.35
2018-02-09T01:18:12.344Z,94.82
2018-02-09T01:20:39.836Z,91.70
2018-02-09T01:23:08.081Z,96.07
2018-02-09T01:25:35.560Z,92.68
2018-02-09T01:28:03.803Z,96.22
2018-02-09T01:30:31.288Z,82.18
2018-02-09T01:32:58.769Z,90.93
2018-02-09T01:35:27.020Z,77.40
2018-02-09T01:37:54.496Z,91.93
2018-02-09T01:40:22.745Z,94.50
2018-02-09T01:42:50.219Z,104.47
2018-02-09T01:45:17.704Z,86.37
2018-02-09T01:47:45.176Z,96.25
2018-02-09T01:50:16.347Z,94.62
2018-02-09T01:52:44.588Z,90.25
2018-02-09T01:55:12.082Z,90.38
2018-02-09T01:57:39.555Z,84.90
2018-02-09T02:00:07.043Z,91.82
2018-02-09T02:02:35.285Z,99.00
2018-02-09T02:05:02.775Z,94.82
2018-02-09T02:07:31.020Z,92.65
2018-02-09T02:09:58.497Z,89.22
2018-02-09T02:12:25.976Z,99.57
2018-02-09T02:14:54.233Z,103.12
2018-02-09T02:17:21.716Z,90.43
2018-02-09T02:19:49.956Z,83.62
2018-02-09T02:22:17.440Z,92.15
2018-02-09T02:24:45.685Z,99.50
2018-02-09T02:27:13.172Z,95.07
2018-02-09T02:29:41.413Z,97.78
2018-02-09T02:32:08.897Z,99.25
2018-02-09T02:34:36.371Z,94.03
2018-02-09T02:37:04.620Z,88.97
2018-02-09T02:39:32.101Z,86.53
2018-02-09T02:42:00.363Z,81.30
2018-02-09T02:44:27.840Z,78.95
2018-02-09T02:46:56.088Z,88.15
2018-02-09T02:49:23.564Z,84.95
2018-02-09T02:51:51.053Z,81.90
2018-02-09T02:54:18.524Z,85.62
2018-02-09T02:56:46.015Z,92.70
2018-02-09T02:59:13.497Z,92.05
2018-02-09T03:01:40.980Z,63.35
2018-02-09T03:04:08.456Z,89.25
2018-02-09T03:06:35.936Z,82.93
2018-02-09T03:09:03.413Z,84.93
2018-02-09T03:11:30.900Z,75.35
2018-02-09T03:13:59.139Z,88.35
2018-02-09T03:16:26.616Z,91.65
2018-02-09T03:18:54.162Z,80.93
2018-02-09T03:21:21.600Z,83.22
2018-02-09T03:23:49.072Z,81.37
2018-02-09T03:26:16.557Z,73.90
2018-02-09T03:28:44.028Z,75.00
2018-02-09T03:31:12.272Z,83.10
2018-02-09T03:33:39.779Z,83.28
2018-02-09T03:36:07.256Z,83.25
2018-02-09T03:38:34.729Z,84.55
2018-02-09T03:41:02.208Z,89.05
2018-02-09T03:43:29.680Z,82.50
2018-02-09T03:45:57.155Z,92.53
2018-02-09T03:48:25.400Z,85.22
2018-02-09T03:50:52.888Z,80.43
2018-02-09T03:53:21.130Z,87.50
2018-02-09T03:55:48.600Z,70.10
2018-02-09T03:58:16.084Z,76.57
2018-02-09T04:00:44.333Z,67.37
2018-02-09T04:03:11.812Z,91.32
2018-02-09T04:05:40.051Z,82.57
2018-02-09T04:08:07.542Z,78.68
2018-02-09T04:10:35.016Z,76.80
2018-02-09T04:13:03.260Z,78.62
2018-02-09T04:15:30.740Z,75.87
2018-02-09T04:17:58.984Z,85.35
2018-02-09T04:20:26.460Z,76.10
2018-02-09T04:22:53.945Z,88.72
2018-02-09T04:25:22.461Z,72.68
2018-02-09T04:27:49.943Z,78.37
2018-02-09T04:30:17.412Z,80.38
2018-02-09T04:32:44.897Z,79.37
2018-02-09T04:35:13.132Z,79.97
2018-02-09T04:37:40.641Z,90.57
2018-02-09T04:40:08.094Z,85.25
2018-02-09T04:42:36.340Z,82.12
2018-02-09T04:45:03.809Z,89.37
2018-02-09T04:47:31.292Z,83.68
2018-02-09T04:49:59.528Z,90.68
2018-02-09T04:52:27.008Z,94.35
2018-02-09T04:54:55.252Z,78.47
2018-02-09T04:57:22.732Z,84.75
2018-02-09T04:59:50.221Z,73.45
2018-02-09T05:02:18.460Z,85.50
2018-02-09T05:04:45.932Z,90.20
2018-02-09T05:07:13.428Z,81.28
2018-02-09T05:09:40.904Z,86.05
2018-02-09T05:12:08.468Z,86.82
2018-02-09T05:14:35.940Z,86.75
2018-02-09T05:17:03.420Z,84.60
2018-02-09T05:19:30.896Z,88.00
2018-02-09T05:21:59.140Z,71.40
2018-02-09T05:24:26.612Z,80.97
2018-02-09T05:26:54.096Z,93.60
2018-02-09T05:29:36.464Z,94.47
2018-02-09T05:32:03.944Z,85.82
2018-02-09T05:34:31.422Z,84.47
2018-02-09T05:36:59.670Z,91.78
2018-02-09T05:39:27.135Z,85.85
2018-02-09T05:41:54.643Z,82.32
2018-02-09T05:44:22.112Z,82.75
2018-02-09T05:46:49.593Z,93.53
2018-02-09T05:49:17.068Z,85.75
2018-02-09T05:51:44.540Z,90.75
2018-02-09T05:54:12.789Z,83.75
2018-02-09T05:56:40.264Z,86.32
2018-02-09T05:59:07.753Z,89.78
2018-02-09T06:01:35.223Z,94.68
2018-02-09T06:04:02.704Z,53.03
2018-02-09T06:06:30.954Z,92.95
2018-02-09T06:08:58.592Z,85.75
2018-02-09T06:11:26.837Z,96.57
2018-02-09T06:13:54.325Z,73.85
2018-02-09T06:16:22.559Z,94.72
2018-02-09T06:18:50.040Z,90.93
2018-02-09T06:21:17.516Z,83.03
2018-02-09T06:23:45.770Z,86.65
2018-02-09T06:26:13.252Z,91.45
2018-02-09T06:28:41.492Z,87.55
2018-02-09T06:31:08.969Z,83.78
2018-02-09T06:33:36.452Z,89.78
2018-02-09T06:36:04.698Z,88.57
2018-02-09T06:38:32.180Z,82.93
2018-02-09T06:40:59.665Z,79.53
2018-02-09T06:43:27.148Z,91.70
2018-02-09T06:45:54.625Z,82.18
2018-02-09T06:48:22.109Z,65.53
2018-02-09T06:50:50.352Z,78.47
2018-02-09T06:53:17.836Z,87.70
2018-02-09T06:55:45.312Z,92.53
2018-02-09T06:58:13.569Z,94.87
2018-02-09T07:00:41.045Z,92.45
2018-02-09T07:03:09.292Z,89.85
2018-02-09T07:05:36.768Z,89.32
2018-02-09T07:08:05.044Z,92.22
2018-02-09T07:10:32.507Z,95.65
2018-02-09T07:13:00.761Z,94.28
2018-02-09T07:15:28.235Z,93.60
2018-02-09T07:17:55.712Z,80.00
2018-02-09T07:20:23.184Z,85.22
2018-02-09T07:22:50.669Z,80.65
2018-02-09T07:25:18.144Z,70.60
2018-02-09T07:27:45.662Z,84.62
2018-02-09T07:30:13.100Z,87.90
2018-02-09T07:32:41.335Z,91.40
2018-02-09T07:35:08.816Z,40.72
2018-02-09T07:37:36.489Z,85.03
2018-02-09T07:40:04.748Z,74.47
2018-02-09T07:42:32.219Z,84.82
2018-02-09T07:45:00.472Z,93.60
2018-02-09T07:47:27.948Z,94.30
2018-02-09T07:49:55.427Z,90.55
2018-02-09T07:52:23.664Z,88.78
2018-02-09T07:54:51.145Z,92.70
2018-02-09T07:57:18.616Z,93.68
2018-02-09T07:59:59.561Z,103.40
2018-02-09T08:02:27.032Z,87.43
2018-02-09T08:04:54.511Z,94.15
2018-02-09T08:07:22.760Z,99.65
2018-02-09T08:09:50.244Z,84.78
2018-02-09T08:12:18.489Z,96.07
2018-02-09T08:14:45.970Z,99.00
2018-02-09T08:17:14.233Z,116.45
2018-02-09T08:31:15.197Z,99.85
2018-02-09T08:33:42.680Z,100.03
2018-02-09T08:36:10.169Z,70.37
2018-02-09T08:38:37.644Z,90.75
2018-02-09T08:41:05.888Z,87.05
2018-02-09T08:43:33.384Z,91.68
2018-02-09T08:46:01.633Z,88.75
2018-02-09T08:48:29.108Z,94.53
2018-02-09T08:50:56.592Z,83.53
2018-02-09T08:53:24.064Z,96.57
2018-02-09T08:55:51.552Z,85.28
2018-02-09T08:58:19.027Z,94.32
2018-02-09T09:00:46.511Z,83.05
2018-02-09T09:03:14.746Z,86.43
2018-02-09T09:05:42.231Z,76.57
2018-02-09T09:08:09.716Z,91.53
2018-02-09T09:10:37.200Z,85.62
2018-02-09T09:13:04.673Z,92.82
2018-02-09T09:15:32.156Z,86.12
2018-02-09T09:17:59.635Z,89.15
2018-02-09T09:20:27.888Z,77.62
2018-02-09T09:22:55.373Z,80.28
2018-02-09T09:25:23.623Z,81.85
2018-02-09T09:27:51.118Z,88.97
2018-02-09T09:30:18.600Z,80.80
2018-02-09T09:32:46.080Z,93.85
2018-02-09T09:35:13.587Z,85.38
2018-02-09T09:37:41.829Z,69.80
2018-02-09T09:40:09.312Z,78.70
2018-02-09T09:42:37.555Z,84.68
2018-02-09T09:45:05.810Z,88.43
2018-02-09T09:47:33.288Z,90.18
2018-02-09T09:50:00.776Z,84.30
2018-02-09T09:52:29.012Z,91.30
2018-02-09T09:54:56.497Z,90.97
2018-02-09T09:57:23.972Z,76.75
2018-02-09T09:59:52.223Z,73.53
2018-02-09T10:02:31.544Z,93.28
2018-02-09T10:04:59.036Z,98.62
2018-02-09T10:07:26.583Z,90.57
2018-02-09T10:09:54.028Z,95.40
2018-02-09T10:12:21.512Z,90.05
2018-02-09T10:14:49.767Z,99.90
2018-02-09T10:17:17.249Z,87.03
2018-02-09T10:19:45.508Z,92.47
2018-02-09T10:22:12.984Z,89.93
2018-02-09T10:24:41.240Z,94.85
2018-02-09T10:27:08.717Z,78.72
2018-02-09T10:29:36.199Z,89.53
2018-02-09T10:32:03.677Z,91.20
2018-02-09T10:34:31.156Z,92.22
2018-02-09T10:36:59.404Z,86.57
2018-02-09T10:39:26.890Z,85.10
2018-02-09T10:41:54.382Z,85.25
2018-02-09T10:44:21.864Z,83.43
2018-02-09T10:46:49.361Z,85.18
2018-02-09T10:49:16.845Z,84.03
2018-02-09T10:51:44.331Z,92.18
2018-02-09T10:54:12.572Z,89.07
2018-02-09T10:56:40.102Z,92.68
2018-02-09T10:59:07.576Z,93.55
2018-02-09T11:01:36.613Z,74.35
2018-02-09T11:04:04.857Z,91.18
2018-02-09T11:06:32.341Z,86.90
2018-02-09T11:08:59.823Z,76.30
2018-02-09T11:11:27.317Z,84.47
2018-02-09T11:13:54.803Z,82.82
2018-02-09T11:16:22.290Z,64.68
2018-02-09T11:18:50.531Z,75.28
2018-02-09T11:21:18.020Z,86.43
2018-02-09T11:23:46.264Z,94.00
2018-02-09T11:26:13.760Z,84.97
2018-02-09T11:28:42.000Z,77.85
2018-02-09T11:31:09.488Z,81.75
2018-02-09T11:33:37.732Z,84.00
2018-02-09T11:36:05.224Z,89.87
2018-02-09T11:38:33.477Z,93.40
2018-02-09T11:41:00.993Z,83.12
2018-02-09T11:43:28.533Z,89.97
2018-02-09T11:45:55.984Z,83.32
2018-02-09T11:48:24.241Z,75.78
2018-02-09T11:50:51.738Z,85.70
2018-02-09T11:53:19.216Z,83.70
2018-02-09T11:55:46.702Z,88.20
2018-02-09T11:58:14.176Z,76.70
2018-02-09T12:00:42.437Z,82.12
2018-02-09T12:03:09.920Z,74.68
2018-02-09T12:05:38.180Z,80.07
2018-02-09T12:08:05.664Z,74.30
2018-02-09T12:10:33.944Z,79.05
2018-02-09T12:13:02.188Z,79.60
2018-02-09T12:15:29.668Z,76.97
2018-02-09T12:17:57.925Z,80.50
2018-02-09T12:20:25.389Z,75.82
2018-02-09T12:22:52.869Z,81.68
2018-02-09T12:25:21.137Z,80.40
2018-02-09T12:27:48.616Z,75.18
2018-02-09T12:30:16.094Z,73.47
2018-02-09T12:32:43.582Z,77.22
2018-02-09T12:35:11.062Z,77.10
2018-02-09T12:37:38.536Z,77.95
2018-02-09T12:40:06.788Z,72.10
2018-02-09T12:42:34.273Z,70.95
2018-02-09T12:45:02.512Z,67.83
2018-02-09T12:47:30.004Z,63.65
2018-02-09T12:49:58.248Z,79.80
2018-02-09T12:52:25.732Z,79.43
2018-02-09T12:54:53.980Z,76.62
2018-02-09T12:57:21.463Z,81.57
2018-02-09T12:59:48.936Z,78.55
2018-02-09T13:02:17.194Z,79.97
2018-02-09T13:04:45.037Z,62.35
2018-02-09T13:07:12.534Z,78.93
2018-02-09T13:09:40.768Z,77.30
2018-02-09T13:12:08.269Z,73.72
2018-02-09T13:14:48.462Z,79.07
2018-02-09T13:17:15.944Z,74.70
2018-02-09T13:19:43.420Z,67.07
2018-02-09T13:22:22.698Z,75.00
2018-02-09T13:24:50.172Z,69.22
2018-02-09T13:27:17.651Z,74.28
2018-02-09T13:29:45.125Z,68.72
2018-02-09T13:32:24.400Z,77.37
2018-02-09T13:34:52.649Z,65.00
2018-02-09T13:37:35.904Z,65.80
2018-02-09T13:40:03.383Z,64.55
2018-02-09T13:42:30.885Z,71.27
2018-02-09T13:44:58.416Z,72.30
2018-02-09T13:47:25.873Z,72.62
2018-02-09T13:49:53.343Z,70.90
2018-02-09T13:52:20.837Z,70.65
2018-02-09T13:54:48.304Z,66.57
2018-02-09T13:57:16.552Z,58.13
2018-02-09T13:59:44.040Z,318.70
2018-02-09T14:02:12.295Z,73.00
2018-02-09T14:04:41.422Z,276.57
2018-02-09T14:07:08.920Z,116.30
2018-02-09T14:09:36.411Z,60.87
2018-02-09T14:12:03.901Z,50.83
2018-02-09T14:14:31.464Z,70.82
2018-02-09T14:16:58.968Z,63.15
2018-02-09T14:19:26.452Z,56.80
2018-02-09T14:21:53.936Z,53.25
2018-02-09T14:24:21.408Z,52.30
2018-02-09T14:26:48.913Z,61.83
2018-02-09T14:29:16.392Z,54.88
2018-02-09T14:31:43.865Z,54.40
2018-02-09T14:34:12.116Z,60.75
2018-02-09T14:36:39.587Z,59.80
2018-02-09T14:39:07.844Z,49.35
2018-02-09T14:41:35.320Z,59.10
2018-02-09T14:44:03.577Z,53.50
2018-02-09T14:46:31.053Z,56.75
2018-02-09T14:48:58.536Z,60.40
2018-02-09T14:51:26.023Z,61.35
2018-02-09T14:53:53.528Z,51.95
2018-02-09T14:56:21.009Z,59.58
2018-02-09T14:58:49.259Z,60.25
2018-02-09T15:01:16.744Z,53.03
2018-02-09T15:03:44.230Z,55.15
2018-02-09T15:06:11.707Z,59.88
2018-02-09T15:08:39.184Z,55.65
2018-02-09T15:11:06.665Z,62.55
2018-02-09T15:13:34.917Z,54.28
2018-02-09T15:16:02.397Z,46.63
2018-02-09T15:18:30.648Z,60.05
2018-02-09T15:20:58.121Z,51.33
2018-02-09T15:23:25.599Z,54.20
2018-02-09T15:25:53.845Z,55.12
2018-02-09T15:28:21.330Z,44.85
2018-02-09T15:30:49.577Z,54.47
2018-02-09T15:33:17.067Z,46.83
2018-02-09T15:35:45.312Z,46.65
2018-02-09T15:38:12.800Z,39.33
2018-02-09T15:40:41.059Z,46.90
2018-02-09T15:43:08.544Z,44.88
2018-02-09T15:45:36.795Z,42.23
2018-02-09T15:48:04.302Z,47.28
2018-02-09T15:50:31.781Z,47.53
2018-02-09T15:52:59.276Z,49.70
2018-02-09T15:55:26.752Z,46.95
2018-02-09T15:57:55.021Z,49.40
2018-02-09T16:00:23.270Z,45.70
2018-02-09T16:02:50.756Z,40.45
2018-02-09T16:05:19.003Z,45.05
2018-02-09T16:07:46.504Z,35.83
2018-02-09T16:10:14.745Z,41.80
2018-02-09T16:12:42.224Z,40.25
2018-02-09T16:15:10.532Z,41.03
2018-02-09T16:17:37.961Z,39.70
2018-02-09T16:20:06.212Z,42.10
2018-02-09T16:22:33.694Z,39.25
2018-02-09T16:25:01.950Z,31.50
2018-02-09T16:27:29.424Z,33.90
2018-02-09T16:29:56.906Z,34.20
2018-02-09T16:32:24.397Z,36.80
2018-02-09T16:34:51.889Z,32.72
2018-02-09T16:37:19.361Z,34.22
2018-02-09T16:39:47.615Z,40.92
2018-02-09T16:42:15.099Z,41.75
2018-02-09T16:44:43.352Z,38.20
2018-02-09T16:47:10.828Z,34.80
2018-02-09T16:49:38.324Z,34.20
2018-02-09T16:52:05.796Z,48.53
2018-02-09T16:54:33.281Z,43.15
2018-02-09T16:57:00.751Z,39.03
2018-02-09T16:59:28.243Z,36.85
2018-02-09T17:01:55.772Z,44.47
2018-02-09T17:04:23.267Z,35.55
2018-02-09T17:06:50.748Z,44.88
2018-02-09T17:09:18.233Z,38.13
2018-02-09T17:11:45.706Z,24.48
2018-02-09T17:14:13.192Z,42.92
2018-02-09T17:16:40.669Z,37.25
2018-02-09T17:19:08.160Z,40.00
2018-02-09T17:21:35.636Z,39.17
2018-02-09T17:24:03.119Z,45.53
2018-02-09T17:26:31.361Z,35.55
2018-02-09T17:28:58.848Z,39.38
2018-02-09T17:31:27.096Z,34.47
2018-02-09T17:33:55.372Z,32.35
2018-02-09T17:36:22.851Z,37.17
2018-02-09T17:38:50.332Z,30.23
2018-02-09T17:41:17.817Z,44.33
2018-02-09T17:43:45.303Z,38.63
2018-02-09T17:46:12.783Z,42.00
2018-02-09T17:48:40.265Z,42.90
2018-02-09T17:51:07.748Z,30.67
2018-02-09T17:53:35.236Z,40.35
2018-02-09T17:56:02.745Z,34.20
2018-02-09T17:58:30.218Z,29.63
2018-02-09T18:00:57.706Z,37.13
2018-02-09T18:03:25.190Z,24.55
2018-02-09T18:05:52.684Z,35.03
2018-02-09T18:08:20.155Z,39.00
2018-02-09T18:10:47.644Z,39.47
2018-02-09T18:13:15.888Z,37.35
2018-02-09T18:15:43.385Z,36.35
2018-02-09T18:18:11.622Z,37.70
2018-02-09T18:20:39.104Z,38.85
2018-02-09T18:23:06.587Z,41.55
2018-02-09T18:25:34.084Z,24.08
2018-02-09T18:28:02.480Z,33.25
2018-02-09T18:30:29.972Z,42.08
2018-02-09T18:32:57.444Z,32.17
2018-02-09T18:35:24.954Z,34.25
2018-02-09T18:37:52.443Z,32.63
2018-02-09T18:40:19.932Z,28.70
2018-02-09T18:42:48.174Z,32.83
2018-02-09T18:45:15.665Z,37.75
2018-02-09T18:47:43.144Z,36.75
2018-02-09T18:50:11.397Z,33.72
2018-02-09T18:52:38.881Z,37.42
2018-02-09T18:55:06.368Z,35.40
2018-02-09T18:57:33.847Z,36.63
2018-02-09T19:00:01.333Z,36.17
2018-02-09T19:02:29.592Z,37.42
2018-02-09T19:04:57.089Z,33.90
2018-02-09T19:07:24.572Z,37.17
2018-02-09T19:09:52.059Z,24.02
2018-02-09T19:12:19.538Z,38.15
2018-02-09T19:14:47.032Z,37.65
2018-02-09T19:17:14.512Z,37.58
2018-02-09T19:20:06.704Z,31.83
2018-02-09T19:22:34.956Z,35.42
2018-02-09T19:28:13.124Z,24.65
2018-02-09T19:30:41.371Z,26.95
2018-02-09T19:33:08.848Z,33.75
2018-02-09T19:35:37.100Z,33.33
2018-02-09T19:38:04.832Z,34.53
2018-02-09T19:40:32.320Z,31.65
2018-02-09T19:42:59.796Z,27.30
2018-02-09T19:45:27.303Z,31.23
2018-02-09T19:47:54.781Z,30.10
2018-02-09T19:50:22.273Z,31.37
2018-02-09T19:52:50.042Z,30.90
2018-02-09T19:55:18.275Z,29.92
2018-02-09T19:57:45.767Z,28.02
2018-02-09T20:00:13.267Z,28.77
2018-02-09T20:02:40.753Z,30.40
2018-02-09T20:05:08.255Z,33.92
2018-02-09T20:07:35.747Z,33.50
2018-02-09T20:10:03.244Z,29.50
2018-02-09T20:12:30.728Z,30.17
2018-02-09T20:14:58.205Z,24.40
2018-02-09T20:17:25.692Z,27.55
2018-02-09T20:19:53.171Z,39.35
2018-02-09T20:22:20.667Z,34.22
2018-02-09T20:24:48.927Z,32.03
2018-02-09T20:27:16.443Z,30.23
2018-02-09T20:29:43.920Z,31.87
2018-02-09T20:32:11.413Z,30.27
2018-02-09T20:34:38.890Z,27.95
2018-02-09T20:37:06.385Z,27.45
2018-02-09T20:39:33.868Z,30.88
2018-02-09T20:42:01.607Z,34.20
2018-02-09T20:44:29.093Z,31.55
2018-02-09T20:46:56.604Z,31.62
2018-02-09T20:49:24.081Z,32.05
2018-02-09T20:52:06.062Z,36.47
2018-02-09T20:54:33.550Z,31.12
2018-02-09T20:57:01.045Z,31.77
2018-02-09T20:59:29.338Z,30.67
2018-02-09T21:01:57.593Z,30.52
2018-02-09T21:04:25.076Z,27.60
2018-02-09T21:06:52.595Z,38.80
2018-02-09T21:09:20.092Z,32.88
2018-02-09T21:11:48.343Z,34.58
2018-02-09T21:14:15.831Z,35.67
2018-02-09T21:16:44.077Z,34.17
2018-02-09T21:19:11.553Z,28.12
2018-02-09T21:21:39.842Z,31.10
2018-02-09T21:24:08.080Z,32.55
2018-02-09T21:26:35.565Z,29.58
2018-02-09T21:29:03.813Z,30.77
2018-02-09T21:31:31.296Z,29.95
2018-02-09T21:33:59.829Z,34.35
2018-02-09T21:36:27.315Z,32.97
2018-02-09T21:38:54.793Z,32.63
2018-02-09T21:41:23.071Z,32.40
2018-02-09T21:43:51.315Z,35.30
2018-02-09T21:46:18.792Z,34.72
2018-02-09T21:48:46.263Z,31.60
2018-02-09T21:51:14.793Z,31.55
2018-02-09T21:53:42.316Z,28.35
2018-02-09T21:56:09.786Z,34.88
2018-02-09T21:58:37.261Z,30.52
2018-02-09T22:01:04.800Z,33.83
2018-02-09T22:03:32.248Z,32.55
2018-02-09T22:06:00.493Z,33.65
2018-02-09T22:08:27.998Z,34.85
2018-02-09T22:10:55.465Z,34.28
2018-02-09T22:13:22.963Z,31.23
2018-02-09T22:15:50.463Z,38.47
2018-02-09T22:18:18.721Z,32.22
2018-02-09T22:20:46.195Z,34.28
2018-02-09T22:23:14.449Z,34.47
2018-02-09T22:25:41.944Z,38.42
2018-02-09T22:28:09.437Z,30.40
2018-02-09T22:30:36.914Z,34.65
2018-02-09T22:33:05.183Z,33.92
2018-02-09T22:35:32.672Z,36.88
2018-02-09T22:38:00.921Z,34.13
2018-02-09T22:40:28.405Z,31.92
2018-02-09T22:42:55.888Z,35.30
2018-02-09T22:45:23.382Z,36.35
2018-02-09T22:47:50.861Z,36.38
2018-02-09T22:50:18.345Z,33.67
2018-02-09T22:52:46.594Z,34.47
2018-02-09T22:55:14.077Z,36.75
2018-02-09T22:57:42.330Z,35.33
2018-02-09T23:00:09.809Z,36.45
2018-02-09T23:02:37.324Z,36.07
2018-02-09T23:05:04.801Z,42.65
2018-02-09T23:07:32.290Z,44.70
2018-02-09T23:10:00.537Z,32.70
2018-02-09T23:12:28.024Z,31.75
2018-02-09T23:14:55.501Z,34.10
2018-02-09T23:17:23.752Z,37.85
2018-02-09T23:19:51.996Z,39.13
2018-02-09T23:22:19.482Z,35.30
2018-02-09T23:24:46.967Z,35.17
2018-02-09T23:27:15.231Z,32.58
2018-02-09T23:29:43.477Z,35.92
2018-02-09T23:32:10.991Z,36.30
2018-02-09T23:34:38.464Z,33.63
2018-02-09T23:37:05.957Z,33.83
2018-02-09T23:39:33.447Z,38.30
2018-02-09T23:42:01.705Z,33.88
2018-02-09T23:44:29.192Z,35.70
2018-02-09T23:46:56.669Z,41.17
2018-02-09T23:49:24.160Z,39.35
2018-02-09T23:51:51.638Z,37.88
2018-02-09T23:54:19.126Z,36.22
2018-02-09T23:56:47.640Z,36.53
2018-02-09T23:59:15.138Z,36.10
